Ever Develop — 3FLF8 — position and weather

sailwx.info

Track history (hours):
 
Tides and Currents Weather Stations Pressure Air Temp Water Temp Dewpoint Dewpoint Depression Visibility Wind Speed Wind Dir Waves Ship Positions

Ever Develop

Last reported at 2016-May-25 06:32 UTC. Time now 2016-May-25 07:16 UTC.
Position N 22°19' E 114°05'.

Type: Ship (hazmat cat D). MMSI: 356391000.

Date/timePositionNaut miles runAvg speedWind from/ knotsBaromVisibWave heightAir tempDewpointWater temp
2016-May-25 06:32N 22°19' E 114°05'0 0.1
2016-May-25 05:33N 22°19' E 114°05'0 0.1
2016-May-25 04:34N 22°19' E 114°05'3 2.7
2016-May-25 03:30N 22°20' E 114°07'0 0.0
2016-May-25 02:33N 22°20' E 114°07'0 0.0
2016-May-25 01:30N 22°20' E 114°07'0 0.0
2016-May-25 00:33N 22°20' E 114°07'0 0.0
2016-May-24 23:33N 22°20' E 114°07'0 0.0
2016-May-24 22:33N 22°20' E 114°07'0 0.0
2016-May-24 21:33N 22°20' E 114°07'0 0.0
2016-May-24 20:33N 22°20' E 114°07'0 0.0
2016-May-24 19:30N 22°20' E 114°07'2 1.7
2016-May-24 18:33N 22°19' E 114°06'12 9.2
2016-May-24 17:13N 22°09' E 114°14'5 7.1
2016-May-24 16:33N 22°08' E 114°19'8 7.6
2016-May-24 15:32N 22°09' E 114°27'8 7.5
2016-May-24 14:32N 22°10' E 114°35'28312.3
2016-May-23 15:33N 22°32' E 119°40'1515.1
2016-May-23 14:33N 22°32' E 119°56'1515.2
2016-May-23 13:33N 22°33' E 120°12'7 6.5
2016-May-23 12:30N 22°33' E 120°20'0 0.0
2016-May-23 10:22N 22°33' E 120°20'0 0.0
2016-May-23 07:28N 22°33' E 120°20'0 0.0
2016-May-23 06:28N 22°33' E 120°20'0 0.0
2016-May-23 04:22N 22°33' E 120°20'0 0.0
2016-May-22 18:33N 22°33' E 120°19'4 3.8
2016-May-22 17:33N 22°32' E 120°15'1 1.2
2016-May-22 16:30N 22°31' E 120°15'0 0.0
2016-May-22 15:30N 22°31' E 120°15'0 0.1
2016-May-22 14:24N 22°31' E 120°15'0 0.1
2016-May-22 13:30N 22°31' E 120°15'0 0.1
2016-May-22 12:30N 22°31' E 120°15'0 0.1
2016-May-22 11:30N 22°31' E 120°15'0 0.3
2016-May-22 10:24N 22°31' E 120°15'0 0.2
2016-May-22 09:30N 22°31' E 120°15'0 0.1
2016-May-22 08:30N 22°31' E 120°15'0 0.1
2016-May-22 07:30N 22°31' E 120°15'0 0.0
2016-May-22 06:30N 22°31' E 120°15'2 1.9
2016-May-22 05:33N 22°29' E 120°14'9 9.2
2016-May-22 04:33N 22°20' E 120°13'  
2016-May-19 06:00N 25°24' E 139°42'40016.0 280 / 31014.010.8 0.526.024.626.0
2016-May-18 05:00N 26°36' E 147°00'8116.3 360 / 121014.010.8 1.526.026.027.0
2016-May-18 00:00N 26°48' E 148°30'30916.3 200 / 51015.010.8 0.525.022.0
2016-May-17 05:00N 27°42' E 154°12'47016.2 120 / 121015.010.8 1.528.026.625.0
2016-May-16 00:00N 28°54' E 163°00'   110 / 161015.010.8 1.025.022.0
Track history (hours):
 
Tides and Currents Weather Stations Pressure Air Temp Water Temp Dewpoint Dewpoint Depression Visibility Wind Speed Wind Dir Waves Ship Positions

Ever Develop

Last reported at 2016-May-25 06:32 UTC. Time now 2016-May-25 07:16 UTC.
Position N 22°19' E 114°05'.

Type: Ship (hazmat cat D). MMSI: 356391000.

Date/timePositionNaut miles runAvg speedWind from/ knotsBaromVisibWave heightAir tempDewpointWater temp
2016-May-25 06:32N 22°19' E 114°05'0 0.1
2016-May-25 05:33N 22°19' E 114°05'0 0.1
2016-May-25 04:34N 22°19' E 114°05'3 2.7
2016-May-25 03:30N 22°20' E 114°07'0 0.0
2016-May-25 02:33N 22°20' E 114°07'0 0.0
2016-May-25 01:30N 22°20' E 114°07'0 0.0
2016-May-25 00:33N 22°20' E 114°07'0 0.0
2016-May-24 23:33N 22°20' E 114°07'0 0.0
2016-May-24 22:33N 22°20' E 114°07'0 0.0
2016-May-24 21:33N 22°20' E 114°07'0 0.0
2016-May-24 20:33N 22°20' E 114°07'0 0.0
2016-May-24 19:30N 22°20' E 114°07'2 1.7
2016-May-24 18:33N 22°19' E 114°06'12 9.2
2016-May-24 17:13N 22°09' E 114°14'5 7.1
2016-May-24 16:33N 22°08' E 114°19'8 7.6
2016-May-24 15:32N 22°09' E 114°27'8 7.5
2016-May-24 14:32N 22°10' E 114°35'28312.3
2016-May-23 15:33N 22°32' E 119°40'1515.1
2016-May-23 14:33N 22°32' E 119°56'1515.2
2016-May-23 13:33N 22°33' E 120°12'7 6.5
2016-May-23 12:30N 22°33' E 120°20'0 0.0
2016-May-23 10:22N 22°33' E 120°20'0 0.0
2016-May-23 07:28N 22°33' E 120°20'0 0.0
2016-May-23 06:28N 22°33' E 120°20'0 0.0
2016-May-23 04:22N 22°33' E 120°20'0 0.0
2016-May-22 18:33N 22°33' E 120°19'4 3.8
2016-May-22 17:33N 22°32' E 120°15'1 1.2
2016-May-22 16:30N 22°31' E 120°15'0 0.0
2016-May-22 15:30N 22°31' E 120°15'0 0.1
2016-May-22 14:24N 22°31' E 120°15'0 0.1
2016-May-22 13:30N 22°31' E 120°15'0 0.1
2016-May-22 12:30N 22°31' E 120°15'0 0.1
2016-May-22 11:30N 22°31' E 120°15'0 0.3
2016-May-22 10:24N 22°31' E 120°15'0 0.2
2016-May-22 09:30N 22°31' E 120°15'0 0.1
2016-May-22 08:30N 22°31' E 120°15'0 0.1
2016-May-22 07:30N 22°31' E 120°15'0 0.0
2016-May-22 06:30N 22°31' E 120°15'2 1.9
2016-May-22 05:33N 22°29' E 120°14'9 9.2
2016-May-22 04:33N 22°20' E 120°13'  
2016-May-19 06:00N 25°24' E 139°42'40016.0 280 / 31014.010.8 0.526.024.626.0
2016-May-18 05:00N 26°36' E 147°00'8116.3 360 / 121014.010.8 1.526.026.027.0
2016-May-18 00:00N 26°48' E 148°30'30916.3 200 / 51015.010.8 0.525.022.0
2016-May-17 05:00N 27°42' E 154°12'47016.2 120 / 121015.010.8 1.528.026.625.0
2016-May-16 00:00N 28°54' E 163°00'   110 / 161015.010.8 1.025.022.0

Dump ship's entire track history